Time;durP1;ratioP1;P1;durP2;ratioP2;P2;SDS_P1;SDS_P2;PMS_P1;PMS_P2;Temp;Humidity;BMP_temperature;BMP_pressure;BME280_temperature;BME280_humidity;BME280_pressure;Samples;Min_cycle;Max_cycle;Signal;HPM_P1;HPM_P2
2024/01/14 02:51:23;;;;;;;7.80;6.00;;;;;;;0.99;100.00;97557.75;106794;1305;545416;-46
2024/01/14 02:53:48;;;;;;;7.20;5.80;;;;;;;0.95;100.00;97553.13;107435;1303;22454;-47
2024/01/14 02:56:13;;;;;;;9.50;6.30;;;;;;;0.95;100.00;97551.38;107440;1295;22505;-46
2024/01/14 02:58:39;;;;;;;7.80;5.70;;;;;;;0.93;100.00;97547.66;107406;1312;22379;-45
2024/01/14 03:01:04;;;;;;;7.00;5.40;;;;;;;0.92;100.00;97540.98;107426;1313;22923;-47
2024/01/14 03:03:29;;;;;;;8.60;6.00;;;;;;;0.92;100.00;97539.45;107453;1295;22267;-49
2024/01/14 03:05:55;;;;;;;7.90;5.40;;;;;;;0.95;100.00;97538.63;107554;1292;128993;-46
2024/01/14 03:08:20;;;;;;;6.60;4.90;;;;;;;0.95;100.00;97532.77;107673;1302;22530;-46
2024/01/14 03:10:45;;;;;;;7.20;5.00;;;;;;;0.92;100.00;97533.23;107674;1289;22478;-45
2024/01/14 03:13:13;;;;;;;6.30;5.10;;;;;;;0.92;100.00;97530.80;107676;1310;22231;-47
2024/01/14 03:15:39;;;;;;;5.50;4.60;;;;;;;0.92;100.00;97534.26;107690;1310;22253;-44
2024/01/14 03:18:04;;;;;;;5.70;4.40;;;;;;;0.92;100.00;97530.64;107691;1298;22237;-46
2024/01/14 03:20:29;;;;;;;5.80;4.80;;;;;;;0.93;100.00;97526.30;107676;1310;22999;-47
2024/01/14 03:22:55;;;;;;;5.60;4.30;;;;;;;0.95;100.00;97524.80;107694;1310;22248;-46
2024/01/14 03:25:20;;;;;;;6.10;5.00;;;;;;;0.90;100.00;97523.67;107666;1309;22320;-44
2024/01/14 03:27:45;;;;;;;4.30;3.90;;;;;;;0.91;100.00;97519.96;107734;1291;22729;-45
2024/01/14 03:30:11;;;;;;;5.40;3.90;;;;;;;0.93;100.00;97515.77;107728;1289;22237;-44
2024/01/14 03:32:36;;;;;;;4.30;3.50;;;;;;;0.93;100.00;97511.62;107679;1310;22319;-45
2024/01/14 03:35:02;;;;;;;4.50;4.10;;;;;;;0.93;100.00;97513.16;107702;1310;22423;-44
2024/01/14 03:37:27;;;;;;;4.70;4.20;;;;;;;0.94;100.00;97518.67;107692;1309;22851;-48
2024/01/14 03:39:52;;;;;;;4.30;3.90;;;;;;;0.96;100.00;97517.71;107693;1310;22238;-44
2024/01/14 03:42:18;;;;;;;4.50;3.50;;;;;;;0.92;100.00;97514.95;107682;1310;22235;-46
2024/01/14 03:44:43;;;;;;;4.20;3.80;;;;;;;0.85;100.00;97514.06;107719;1310;22460;-44
2024/01/14 03:47:08;;;;;;;4.40;4.00;;;;;;;0.85;100.00;97499.94;107724;1289;23187;-49
2024/01/14 03:49:34;;;;;;;6.30;3.70;;;;;;;0.85;100.00;97503.02;107690;1310;22432;-45
2024/01/14 03:51:59;;;;;;;4.20;3.80;;;;;;;0.85;100.00;97495.42;107706;1292;23236;-45
2024/01/14 03:54:24;;;;;;;4.00;3.60;;;;;;;0.86;100.00;97491.08;107694;1309;22273;-47
2024/01/14 03:56:50;;;;;;;4.50;4.10;;;;;;;0.83;100.00;97482.94;107696;1292;22161;-44
2024/01/14 03:59:15;;;;;;;3.70;3.40;;;;;;;0.84;100.00;97481.98;107679;1309;22319;-48
2024/01/14 04:01:42;;;;;;;3.60;3.30;;;;;;;0.80;100.00;97478.73;107700;1286;22262;-45
2024/01/14 04:04:08;;;;;;;3.70;3.40;;;;;;;0.79;100.00;97474.30;107721;1310;22284;-44
2024/01/14 04:06:33;;;;;;;4.30;3.70;;;;;;;0.78;100.00;97469.84;107669;1310;22413;-46
2024/01/14 04:08:58;;;;;;;4.00;3.60;;;;;;;0.75;100.00;97470.86;108027;1285;22426;-45
2024/01/14 04:11:24;;;;;;;4.30;3.80;;;;;;;0.79;100.00;97471.21;108026;1307;22219;-45
2024/01/14 04:13:49;;;;;;;4.40;3.90;;;;;;;0.78;100.00;97471.42;108044;1286;22246;-45
2024/01/14 04:16:15;;;;;;;4.80;3.60;;;;;;;0.77;100.00;97469.58;108021;1306;22229;-44
2024/01/14 04:18:40;;;;;;;5.00;3.60;;;;;;;0.79;100.00;97468.42;108029;1289;22537;-44
2024/01/14 04:21:05;;;;;;;3.60;3.30;;;;;;;0.81;100.00;97461.95;108035;1286;22538;-48
2024/01/14 04:23:31;;;;;;;4.40;3.70;;;;;;;0.85;100.00;97463.66;108023;1307;22716;-47
2024/01/14 04:25:56;;;;;;;4.20;3.80;;;;;;;0.84;100.00;97459.95;108039;1289;22319;-46
2024/01/14 04:28:21;;;;;;;4.20;3.70;;;;;;;0.85;100.00;97464.73;108028;1306;22984;-47
2024/01/14 04:30:47;;;;;;;4.00;3.50;;;;;;;0.88;100.00;97465.11;108031;1285;22289;-46
2024/01/14 04:33:12;;;;;;;4.80;3.60;;;;;;;0.87;100.00;97463.58;108020;1285;22303;-45
2024/01/14 04:35:37;;;;;;;6.10;3.70;;;;;;;0.88;100.00;97461.96;108024;1289;22234;-48
2024/01/14 04:38:04;;;;;;;4.20;3.80;;;;;;;0.91;100.00;97455.97;108037;1299;23200;-46
2024/01/14 04:40:29;;;;;;;4.40;3.80;;;;;;;0.91;100.00;97458.71;108029;1307;22525;-47
2024/01/14 04:42:54;;;;;;;5.40;4.40;;;;;;;0.92;100.00;97459.39;108018;1293;22268;-44
2024/01/14 04:45:20;;;;;;;3.80;3.50;;;;;;;0.93;100.00;97460.55;108045;1304;22442;-47
2024/01/14 04:47:45;;;;;;;3.80;3.40;;;;;;;0.93;100.00;97462.09;108067;1307;23028;-46
2024/01/14 04:50:10;;;;;;;3.80;3.50;;;;;;;0.92;100.00;97461.13;108053;1298;22265;-46
2024/01/14 04:52:36;;;;;;;4.70;4.20;;;;;;;0.89;100.00;97462.44;108025;1304;22267;-48
2024/01/14 04:55:01;;;;;;;5.00;4.50;;;;;;;0.91;100.00;97455.98;108049;1289;22252;-47
2024/01/14 04:57:26;;;;;;;5.20;4.50;;;;;;;0.90;100.00;97462.42;108011;1307;23047;-44
2024/01/14 04:59:51;;;;;;;4.90;4.00;;;;;;;0.92;100.00;97451.81;108039;1284;24920;-44
2024/01/14 05:02:17;;;;;;;5.90;4.80;;;;;;;0.89;100.00;97454.70;108031;1286;22316;-45
2024/01/14 05:04:42;;;;;;;4.90;4.40;;;;;;;0.89;100.00;97452.79;108031;1289;22197;-47
2024/01/14 05:07:07;;;;;;;5.10;4.20;;;;;;;0.90;100.00;97450.00;108061;1286;22275;-45
2024/01/14 05:09:33;;;;;;;4.90;4.10;;;;;;;0.88;100.00;97446.46;107790;1285;22246;-44
2024/01/14 05:11:58;;;;;;;5.50;4.60;;;;;;;0.89;100.00;97454.19;108023;1289;22250;-47
2024/01/14 05:14:23;;;;;;;5.70;4.80;;;;;;;0.84;100.00;97450.96;108023;1307;22332;-44
2024/01/14 05:16:48;;;;;;;4.90;4.40;;;;;;;0.85;100.00;97451.45;108043;1306;22402;-44
2024/01/14 05:19:14;;;;;;;8.20;4.90;;;;;;;0.89;100.00;97450.56;108016;1306;23183;-44
2024/01/14 05:21:39;;;;;;;6.00;5.00;;;;;;;0.90;100.00;97451.90;108036;1307;22252;-47
2024/01/14 05:24:04;;;;;;;9.70;5.20;;;;;;;0.91;100.00;97453.58;108034;1307;22292;-45
2024/01/14 05:26:30;;;;;;;6.90;5.30;;;;;;;0.91;100.00;97445.80;108033;1285;23024;-44
2024/01/14 05:28:59;;;;;;;6.30;5.60;;;;;;;0.94;100.00;97444.44;108019;1288;24293;-45
2024/01/14 05:31:24;;;;;;;8.00;6.40;;;;;;;0.95;100.00;97444.42;108026;1306;22210;-49
2024/01/14 05:33:50;;;;;;;7.00;5.90;;;;;;;0.92;100.00;97439.72;108017;1306;22364;-44
2024/01/14 05:36:15;;;;;;;5.20;4.60;;;;;;;0.96;100.00;97435.90;108013;1307;22246;-46
2024/01/14 05:38:41;;;;;;;6.30;5.20;;;;;;;0.96;100.00;97433.84;108012;1307;22445;-45
2024/01/14 05:41:06;;;;;;;5.70;4.90;;;;;;;0.98;100.00;97432.06;108041;1285;22408;-46
2024/01/14 05:43:32;;;;;;;5.10;4.60;;;;;;;0.99;100.00;97432.35;108016;1286;22908;-46
2024/01/14 05:45:57;;;;;;;5.50;5.00;;;;;;;0.94;100.00;97431.52;108010;1302;22220;-46
2024/01/14 05:48:22;;;;;;;6.50;5.40;;;;;;;0.95;100.00;97426.80;108023;1292;23045;-45
2024/01/14 05:50:47;;;;;;;8.40;5.40;;;;;;;0.94;100.00;97428.39;108043;1285;22364;-48
2024/01/14 05:53:13;;;;;;;6.90;5.70;;;;;;;0.92;100.00;97427.83;108030;1307;22476;-47
2024/01/14 05:55:38;;;;;;;7.70;5.20;;;;;;;0.89;100.00;97425.89;108030;1302;22466;-47
2024/01/14 05:58:04;;;;;;;9.00;6.10;;;;;;;0.92;100.00;97426.95;108003;1307;22223;-46
2024/01/14 06:00:29;;;;;;;7.30;5.10;;;;;;;0.92;100.00;97433.70;108045;1307;22449;-46
2024/01/14 06:02:54;;;;;;;5.80;4.80;;;;;;;0.90;100.00;97429.44;108035;1307;22409;-45
2024/01/14 06:05:20;;;;;;;5.20;4.40;;;;;;;0.91;100.00;97433.23;108030;1285;23000;-44
2024/01/14 06:07:45;;;;;;;7.20;4.40;;;;;;;0.86;100.00;97431.52;108039;1304;23202;-45
2024/01/14 06:10:11;;;;;;;6.00;4.20;;;;;;;0.85;100.00;97432.98;108026;1307;22999;-50
2024/01/14 06:12:36;;;;;;;5.30;4.80;;;;;;;0.87;100.00;97429.41;108060;1307;22980;-44
2024/01/14 06:15:01;;;;;;;6.40;4.80;;;;;;;0.84;100.00;97428.17;108040;1288;23457;-44
2024/01/14 06:17:27;;;;;;;7.20;4.60;;;;;;;0.85;100.00;97427.95;108040;1286;22464;-44
2024/01/14 06:19:52;;;;;;;4.30;3.90;;;;;;;0.88;100.00;97431.43;108022;1289;22886;-44
2024/01/14 06:22:17;;;;;;;6.30;4.00;;;;;;;0.87;100.00;97435.11;108025;1307;22263;-43
2024/01/14 06:24:46;;;;;;;5.10;4.30;;;;;;;0.86;100.00;97435.17;108056;1307;23158;-44
2024/01/14 06:27:11;;;;;;;5.10;4.50;;;;;;;0.88;100.00;97436.27;108046;1285;22906;-46
2024/01/14 06:29:37;;;;;;;4.50;4.10;;;;;;;0.90;100.00;97440.34;108027;1307;22285;-44
2024/01/14 06:32:02;;;;;;;5.70;4.60;;;;;;;0.86;100.00;97441.20;108056;1307;22245;-49
2024/01/14 06:34:27;;;;;;;8.20;4.50;;;;;;;0.87;100.00;97441.85;108006;1307;22257;-44
2024/01/14 06:36:53;;;;;;;4.40;3.90;;;;;;;0.90;100.00;97444.13;108042;1307;22444;-45
2024/01/14 06:39:18;;;;;;;7.80;4.70;;;;;;;0.90;100.00;97446.54;107836;1307;22457;-46
2024/01/14 06:41:43;;;;;;;6.60;4.70;;;;;;;0.90;100.00;97447.77;108037;1307;22308;-46
2024/01/14 06:44:09;;;;;;;5.90;4.50;;;;;;;0.87;100.00;97458.58;108017;1307;22260;-47
2024/01/14 06:46:34;;;;;;;5.00;4.30;;;;;;;0.83;100.00;97455.13;108022;1289;22465;-45
2024/01/14 06:49:00;;;;;;;5.60;4.60;;;;;;;0.84;100.00;97459.77;108012;1307;22234;-46
2024/01/14 06:51:25;;;;;;;9.00;5.10;;;;;;;0.80;100.00;97460.45;108053;1292;23067;-43
2024/01/14 06:53:50;;;;;;;10.30;6.70;;;;;;;0.84;100.00;97458.41;108040;1288;22286;-44
2024/01/14 06:56:16;;;;;;;7.30;5.00;;;;;;;0.85;100.00;97461.42;108030;1288;22286;-43
2024/01/14 06:58:41;;;;;;;5.20;4.70;;;;;;;0.89;100.00;97454.02;108021;1307;23079;-43
2024/01/14 07:01:07;;;;;;;7.40;5.30;;;;;;;0.90;100.00;97451.56;108021;1288;23008;-45
2024/01/14 07:03:33;;;;;;;7.70;4.80;;;;;;;0.92;100.00;97453.50;108021;1307;22253;-45
2024/01/14 07:05:58;;;;;;;7.80;5.10;;;;;;;0.93;100.00;97455.90;108035;1288;22582;-44
2024/01/14 07:08:24;;;;;;;8.20;5.40;;;;;;;0.97;100.00;97462.64;108032;1307;22475;-44
2024/01/14 07:10:50;;;;;;;6.00;5.10;;;;;;;1.00;100.00;97464.71;108031;1307;22402;-44
2024/01/14 07:13:15;;;;;;;9.30;5.70;;;;;;;0.98;100.00;97466.18;108018;1307;22246;-45
2024/01/14 07:15:40;;;;;;;7.00;5.70;;;;;;;0.99;100.00;97468.72;108055;1307;23116;-43
2024/01/14 07:18:06;;;;;;;6.80;5.00;;;;;;;0.96;100.00;97468.85;108030;1307;23245;-44
2024/01/14 07:20:31;;;;;;;10.00;5.60;;;;;;;0.97;100.00;97468.64;108005;1307;22227;-44
2024/01/14 07:22:56;;;;;;;8.70;5.10;;;;;;;0.99;100.00;97478.40;108056;1307;23153;-43
2024/01/14 07:25:22;;;;;;;5.80;4.40;;;;;;;0.97;100.00;97469.52;108041;1289;22994;-44
2024/01/14 07:27:48;;;;;;;5.10;4.60;;;;;;;0.96;100.00;97464.20;108017;1307;22302;-45
2024/01/14 07:30:13;;;;;;;6.30;4.80;;;;;;;0.95;100.00;97471.02;108051;1307;23040;-45
2024/01/14 07:32:39;;;;;;;5.70;4.20;;;;;;;0.96;100.00;97470.23;108062;1288;22871;-45
2024/01/14 07:35:06;;;;;;;5.60;4.20;;;;;;;1.00;100.00;97474.05;108044;1288;22215;-45
2024/01/14 07:37:33;;;;;;;5.40;4.30;;;;;;;0.99;100.00;97471.81;108043;1306;22298;-43
2024/01/14 07:40:00;;;;;;;5.20;4.20;;;;;;;1.01;100.00;97470.35;108052;1307;23031;-43
2024/01/14 07:42:25;;;;;;;17.30;8.70;;;;;;;1.03;100.00;97469.41;108037;1289;22219;-45
2024/01/14 07:44:51;;;;;;;8.10;5.80;;;;;;;1.04;100.00;97471.62;108055;1307;22247;-47
2024/01/14 07:47:17;;;;;;;7.70;5.50;;;;;;;1.05;100.00;97477.27;108030;1307;22225;-47
2024/01/14 07:49:48;;;;;;;5.90;4.10;;;;;;;1.06;100.00;97484.10;108055;1306;22390;-44
2024/01/14 07:52:13;;;;;;;13.00;3.90;;;;;;;1.06;100.00;97483.94;108041;1289;22384;-44
2024/01/14 07:54:39;;;;;;;7.00;3.60;;;;;;;1.07;100.00;97478.69;108036;1306;22418;-45
2024/01/14 07:57:04;;;;;;;4.10;3.70;;;;;;;1.09;100.00;97481.02;108051;1289;22915;-45
2024/01/14 07:59:29;;;;;;;7.10;3.90;;;;;;;1.11;100.00;97479.41;108020;1307;22388;-46
2024/01/14 08:01:55;;;;;;;4.50;4.00;;;;;;;1.07;100.00;97478.88;108030;1307;22310;-45
2024/01/14 08:04:20;;;;;;;5.30;3.80;;;;;;;1.08;100.00;97481.58;108036;1286;22277;-49
2024/01/14 08:06:45;;;;;;;9.40;5.00;;;;;;;1.10;100.00;97482.55;107985;1306;22924;-45
2024/01/14 08:09:11;;;;;;;11.10;4.50;;;;;;;1.12;100.00;97482.64;108058;1307;22409;-48
2024/01/14 08:11:36;;;;;;;6.50;4.10;;;;;;;1.14;100.00;97482.18;108035;1307;22398;-47
2024/01/14 08:14:02;;;;;;;8.00;5.10;;;;;;;1.19;100.00;97478.14;108045;1307;22412;-46
2024/01/14 08:16:27;;;;;;;23.30;11.30;;;;;;;1.18;100.00;97482.01;108022;1307;22259;-47
2024/01/14 08:18:52;;;;;;;25.00;9.20;;;;;;;1.24;100.00;97481.91;108035;1307;22488;-49
2024/01/14 08:21:18;;;;;;;25.50;11.10;;;;;;;1.26;100.00;97474.93;108032;1307;22439;-46
2024/01/14 08:23:43;;;;;;;12.20;5.50;;;;;;;1.27;100.00;97477.09;108044;1289;22446;-47
2024/01/14 08:26:09;;;;;;;22.70;8.50;;;;;;;1.33;100.00;97479.42;108042;1286;22376;-45
2024/01/14 08:28:35;;;;;;;31.20;12.80;;;;;;;1.27;100.00;97477.77;108040;1283;22217;-47
2024/01/14 08:31:01;;;;;;;15.70;6.90;;;;;;;1.23;100.00;97483.86;108037;1288;22261;-48
2024/01/14 08:33:27;;;;;;;11.00;7.30;;;;;;;1.30;100.00;97479.55;108045;1289;22241;-47
2024/01/14 08:35:56;;;;;;;13.60;7.70;;;;;;;1.32;100.00;97481.70;108042;1288;22273;-47
2024/01/14 08:38:21;;;;;;;7.70;4.60;;;;;;;1.33;100.00;97483.89;108054;1289;23138;-46
2024/01/14 08:40:47;;;;;;;11.40;7.00;;;;;;;1.33;100.00;97484.08;108040;1286;22231;-48
2024/01/14 08:43:12;;;;;;;8.10;4.90;;;;;;;1.33;100.00;97486.17;108032;1307;22281;-47
2024/01/14 08:45:38;;;;;;;7.40;5.50;;;;;;;1.28;100.00;97489.66;108031;1307;22232;-48
2024/01/14 08:48:06;;;;;;;55.70;27.20;;;;;;;1.29;100.00;97491.86;108040;1292;22406;-45
2024/01/14 08:50:31;;;;;;;20.80;12.40;;;;;;;1.33;100.00;97487.02;108052;1306;22254;-46
2024/01/14 08:52:57;;;;;;;16.00;8.70;;;;;;;1.32;100.00;97485.67;108045;1307;23126;-48
2024/01/14 08:55:22;;;;;;;11.50;6.40;;;;;;;1.31;100.00;97486.43;108034;1289;22223;-45
2024/01/14 08:57:48;;;;;;;9.00;5.60;;;;;;;1.31;100.00;97497.66;108025;1306;22406;-48
2024/01/14 09:00:13;;;;;;;7.00;4.80;;;;;;;1.29;100.00;97498.27;108041;1288;22397;-46
2024/01/14 09:02:39;;;;;;;9.10;5.10;;;;;;;1.30;100.00;97500.28;108044;1307;23023;-47
2024/01/14 09:05:05;;;;;;;7.20;5.20;;;;;;;1.30;100.00;97498.21;108042;1285;22432;-47
2024/01/14 09:07:30;;;;;;;6.50;4.90;;;;;;;1.38;100.00;97498.89;108039;1286;22244;-48
2024/01/14 09:09:56;;;;;;;7.50;4.70;;;;;;;1.44;100.00;97505.69;108030;1307;23060;-48
2024/01/14 09:12:21;;;;;;;9.40;5.20;;;;;;;1.45;100.00;97506.98;108047;1307;22378;-49
2024/01/14 09:14:47;;;;;;;10.60;4.90;;;;;;;1.52;100.00;97510.79;108044;1285;22867;-48
2024/01/14 09:17:12;;;;;;;7.80;5.20;;;;;;;1.45;100.00;97515.26;108038;1307;22802;-49
2024/01/14 09:19:38;;;;;;;8.40;5.30;;;;;;;1.48;100.00;97510.30;108042;1307;22510;-45
2024/01/14 09:22:03;;;;;;;12.90;7.10;;;;;;;1.56;100.00;97510.64;108067;1286;22234;-49
2024/01/14 09:24:29;;;;;;;10.20;5.40;;;;;;;1.56;100.00;97513.73;108044;1288;22272;-46
2024/01/14 09:26:54;;;;;;;9.90;4.50;;;;;;;1.56;100.00;97511.33;108042;1305;22285;-50
2024/01/14 09:29:20;;;;;;;8.60;5.70;;;;;;;1.60;100.00;97510.64;108048;1286;22417;-46
2024/01/14 09:31:45;;;;;;;5.70;4.50;;;;;;;1.65;100.00;97515.38;108031;1307;22159;-46
2024/01/14 09:34:10;;;;;;;7.30;5.00;;;;;;;1.66;100.00;97518.60;108040;1306;22343;-47
2024/01/14 09:36:38;;;;;;;8.90;6.80;;;;;;;1.71;100.00;97510.26;108067;1307;22956;-45
2024/01/14 09:39:03;;;;;;;6.70;5.20;;;;;;;1.75;100.00;97510.59;108040;1307;23104;-45
2024/01/14 09:42:01;;;;;;;8.30;5.40;;;;;;;1.74;100.00;97506.14;108017;1307;22257;-45
2024/01/14 09:44:27;;;;;;;7.60;4.80;;;;;;;1.77;100.00;97502.70;108028;1289;22284;-46
2024/01/14 09:46:52;;;;;;;7.80;4.60;;;;;;;1.76;100.00;97502.95;108038;1307;22251;-47
2024/01/14 09:49:20;;;;;;;6.40;4.50;;;;;;;1.78;100.00;97501.61;108027;1307;22951;-49
2024/01/14 09:51:47;;;;;;;8.40;4.30;;;;;;;1.75;100.00;97510.92;108038;1286;22359;-50
2024/01/14 09:54:13;;;;;;;8.80;6.50;;;;;;;1.68;100.00;97511.09;108032;1307;22216;-45
2024/01/14 09:56:40;;;;;;;8.60;6.10;;;;;;;1.69;99.90;97508.46;108023;1307;22257;-46
2024/01/14 09:59:07;;;;;;;;;;;;;;;1.55;99.33;97502.20;108032;1307;23237;-50
2024/01/14 10:01:33;;;;;;;9.10;4.90;;;;;;;1.61;99.68;97509.34;108045;1288;22402;-49
2024/01/14 10:04:05;;;;;;;5.00;3.60;;;;;;;1.64;99.81;97508.31;108045;1286;22408;-47
2024/01/14 10:06:31;;;;;;;9.70;4.00;;;;;;;1.61;99.28;97508.30;108026;1288;22489;-46
2024/01/14 10:08:57;;;;;;;6.60;4.40;;;;;;;1.69;99.26;97497.90;108016;1289;22221;-46
2024/01/14 10:11:23;;;;;;;11.10;6.80;;;;;;;1.77;98.80;97493.38;108020;1288;22449;-47
2024/01/14 10:13:49;;;;;;;7.10;3.90;;;;;;;1.85;99.29;97498.34;108059;1292;23051;-46
2024/01/14 10:16:15;;;;;;;6.90;3.90;;;;;;;1.85;98.66;97494.74;108034;1307;23202;-48
2024/01/14 10:18:40;;;;;;;8.80;3.50;;;;;;;1.89;97.96;97493.64;108040;1288;22286;-49
2024/01/14 10:21:05;;;;;;;11.00;5.10;;;;;;;2.00;97.78;97489.86;108032;1307;22237;-46
2024/01/14 10:23:31;;;;;;;6.20;3.90;;;;;;;2.03;97.76;97494.04;108008;1307;22264;-48
2024/01/14 10:26:01;;;;;;;6.00;3.20;;;;;;;2.03;96.85;97497.83;108054;1307;22391;-47
2024/01/14 10:28:36;;;;;;;6.70;3.40;;;;;;;2.11;96.87;97496.41;108048;1288;22859;-46
2024/01/14 10:31:04;;;;;;;7.60;3.90;;;;;;;2.02;96.11;97493.02;108057;1307;22309;-50
2024/01/14 10:33:33;;;;;;;5.40;3.20;;;;;;;2.02;96.31;97492.84;108051;1307;22519;-46
2024/01/14 10:35:59;;;;;;;7.40;3.90;;;;;;;1.98;96.22;97490.12;108054;1307;22931;-49
2024/01/14 10:38:25;;;;;;;11.90;5.50;;;;;;;1.95;96.45;97489.59;108040;1287;22227;-46
2024/01/14 10:40:51;;;;;;;8.70;4.40;;;;;;;1.90;96.80;97497.73;108032;1307;22346;-48
2024/01/14 10:43:16;;;;;;;16.70;6.40;;;;;;;1.89;97.13;97497.11;108030;1307;22252;-47
2024/01/14 10:45:45;;;;;;;10.70;5.50;;;;;;;1.78;97.32;97491.25;108015;1307;22130;-48
2024/01/14 10:48:13;;;;;;;11.10;4.50;;;;;;;1.71;97.51;97495.23;108033;1306;23033;-49
2024/01/14 10:50:44;;;;;;;6.90;4.20;;;;;;;1.71;97.79;97497.14;108050;1288;22255;-49
2024/01/14 10:53:16;;;;;;;9.20;4.60;;;;;;;1.67;97.72;97491.96;108037;1285;22262;-45
2024/01/14 10:55:48;;;;;;;8.90;4.30;;;;;;;1.68;97.94;97495.20;108031;1289;22304;-48
2024/01/14 10:58:27;;;;;;;8.60;4.70;;;;;;;1.68;97.68;97500.70;108040;1307;22312;-47
2024/01/14 11:00:59;;;;;;;55.40;24.90;;;;;;;1.68;97.22;97493.82;108010;1307;22753;-50
2024/01/14 11:03:29;;;;;;;11.00;5.60;;;;;;;1.72;97.30;97494.67;108036;1289;22834;-50
2024/01/14 11:05:55;;;;;;;9.60;5.20;;;;;;;1.74;97.31;97489.90;108036;1307;23075;-46
2024/01/14 11:08:23;;;;;;;5.80;4.10;;;;;;;1.76;97.42;97485.48;108006;1289;22410;-49
2024/01/14 11:10:51;;;;;;;15.30;7.40;;;;;;;1.75;97.12;97488.45;108024;1306;22410;-50
2024/01/14 11:13:35;;;;;;;28.30;14.80;;;;;;;1.70;96.84;97483.02;108012;1307;22404;-49
2024/01/14 11:16:12;;;;;;;17.20;7.60;;;;;;;1.66;96.69;97482.00;108043;1288;22947;-49
2024/01/14 11:18:49;;;;;;;12.00;6.00;;;;;;;1.67;96.67;97474.71;108034;1289;22282;-47
2024/01/14 11:21:43;;;;;;;8.10;4.20;;;;;;;1.65;96.35;97473.08;108011;1289;22906;-46
2024/01/14 11:24:08;;;;;;;8.40;4.30;;;;;;;1.65;96.56;97469.98;108051;1284;22254;-46
2024/01/14 11:26:35;;;;;;;10.80;4.80;;;;;;;1.67;96.64;97471.76;108027;1286;22968;-48
2024/01/14 11:29:02;;;;;;;7.40;4.10;;;;;;;1.67;96.69;97474.87;108039;1307;22478;-47
2024/01/14 11:32:05;;;;;;;9.30;5.50;;;;;;;1.71;96.91;97476.91;108025;1289;22234;-48
2024/01/14 11:34:46;;;;;;;9.80;4.80;;;;;;;1.75;96.97;97477.39;108055;1286;22450;-47
2024/01/14 11:37:30;;;;;;;10.90;5.00;;;;;;;1.80;96.64;97480.61;108024;1306;22475;-48
2024/01/14 11:40:09;;;;;;;6.20;3.50;;;;;;;1.83;96.28;97481.68;108066;1287;23036;-46
2024/01/14 11:42:35;;;;;;;6.50;3.30;;;;;;;1.86;96.57;97478.07;108038;1289;22382;-49
2024/01/14 11:45:01;;;;;;;8.40;4.00;;;;;;;1.83;96.20;97476.16;108043;1306;22932;-47
2024/01/14 11:47:37;;;;;;;6.30;3.30;;;;;;;1.89;96.19;97477.94;108030;1287;22255;-49
2024/01/14 11:50:03;;;;;;;6.60;4.20;;;;;;;1.90;96.02;97479.09;108011;1287;22514;-47
2024/01/14 11:52:29;;;;;;;7.70;3.80;;;;;;;1.83;95.87;97475.79;108044;1288;22393;-47
2024/01/14 11:54:54;;;;;;;10.70;5.20;;;;;;;1.74;95.78;97470.20;108004;1288;22399;-47
2024/01/14 11:57:24;;;;;;;8.40;4.80;;;;;;;1.83;95.86;97479.63;108008;1307;22390;-46
2024/01/14 11:59:51;;;;;;;7.20;3.50;;;;;;;1.74;95.72;97474.51;108037;1289;22254;-48
2024/01/14 12:02:16;;;;;;;7.50;3.80;;;;;;;1.75;96.07;97472.26;108035;1289;22990;-46
2024/01/14 12:04:43;;;;;;;6.90;3.60;;;;;;;1.75;96.05;97469.31;108022;1307;23231;-48
2024/01/14 12:07:08;;;;;;;7.10;4.20;;;;;;;1.76;96.27;97467.86;108019;1307;23079;-50
2024/01/14 12:09:33;;;;;;;11.70;5.70;;;;;;;1.77;96.53;97470.58;108026;1287;22222;-48
2024/01/14 12:12:04;;;;;;;10.20;5.10;;;;;;;1.83;96.50;97475.14;108017;1289;22243;-50
2024/01/14 12:14:31;;;;;;;12.50;5.10;;;;;;;1.75;96.01;97476.19;108024;1286;22274;-50
2024/01/14 12:16:56;;;;;;;8.10;4.00;;;;;;;1.79;96.16;97477.40;107810;1307;22473;-46
2024/01/14 12:19:21;;;;;;;6.90;4.50;;;;;;;1.76;96.10;97473.19;108023;1286;22422;-49
2024/01/14 12:21:47;;;;;;;5.90;4.50;;;;;;;1.79;96.17;97474.64;108009;1307;22231;-47
2024/01/14 12:24:13;;;;;;;7.80;4.30;;;;;;;1.80;96.16;97481.14;108005;1307;22244;-46
2024/01/14 12:26:38;;;;;;;10.90;5.20;;;;;;;1.73;96.01;97473.52;108040;1289;22499;-47
2024/01/14 12:29:04;;;;;;;7.90;3.70;;;;;;;1.71;96.12;97474.30;108013;1307;22198;-47
2024/01/14 12:31:32;;;;;;;9.40;3.70;;;;;;;1.68;96.30;97470.51;108022;1289;22291;-49
2024/01/14 12:34:01;;;;;;;10.80;5.00;;;;;;;1.62;96.60;97468.70;108023;1298;22417;-49
2024/01/14 12:36:26;;;;;;;8.20;5.10;;;;;;;1.62;96.95;97464.41;108049;1304;22595;-48
2024/01/14 12:38:51;;;;;;;8.00;4.50;;;;;;;1.63;96.99;97466.07;108026;1289;22417;-49
2024/01/14 12:41:17;;;;;;;8.90;4.80;;;;;;;1.66;96.97;97465.27;108024;1285;22239;-50
2024/01/14 12:43:43;;;;;;;7.00;4.50;;;;;;;1.60;97.00;97464.33;108011;1299;23075;-47
2024/01/14 12:46:08;;;;;;;10.50;4.40;;;;;;;1.57;97.14;97464.82;107736;1306;22215;-49
2024/01/14 12:48:33;;;;;;;11.50;4.50;;;;;;;1.58;97.34;97463.55;108017;1289;23254;-45
2024/01/14 12:51:00;;;;;;;9.70;4.70;;;;;;;1.50;97.67;97465.15;108028;1289;22221;-50
2024/01/14 12:53:28;;;;;;;14.60;5.80;;;;;;;1.44;98.10;97464.02;108017;1307;22228;-49
2024/01/14 12:56:13;;;;;;;10.60;5.40;;;;;;;1.45;98.17;97461.95;108033;1307;22245;-49
2024/01/14 12:58:39;;;;;;;11.10;5.60;;;;;;;1.42;98.63;97465.33;108019;1286;22240;-48
2024/01/14 13:01:05;;;;;;;12.70;5.30;;;;;;;1.41;99.12;97461.95;108038;1286;23006;-49
2024/01/14 13:03:31;;;;;;;13.60;5.30;;;;;;;1.44;98.88;97462.16;108047;1289;23201;-49
2024/01/14 13:05:56;;;;;;;12.20;5.30;;;;;;;1.42;98.92;97466.92;108026;1289;23026;-46
2024/01/14 13:08:22;;;;;;;17.00;7.40;;;;;;;1.38;99.09;97458.79;108016;1289;22391;-50
2024/01/14 13:10:47;;;;;;;22.20;6.80;;;;;;;1.40;99.04;97461.48;108016;1307;23070;-46
2024/01/14 13:13:12;;;;;;;14.00;7.50;;;;;;;1.40;98.92;97460.60;108036;1289;22415;-47
2024/01/14 13:15:38;;;;;;;12.60;6.70;;;;;;;1.41;98.74;97461.27;108016;1307;22388;-48
2024/01/14 13:18:04;;;;;;;11.70;5.80;;;;;;;1.40;98.56;97460.63;108034;1307;22263;-47
2024/01/14 13:20:29;;;;;;;11.80;5.50;;;;;;;1.39;98.58;97461.02;108035;1307;22995;-48
2024/01/14 13:22:54;;;;;;;8.60;4.70;;;;;;;1.33;98.91;97457.12;108011;1286;22580;-46
2024/01/14 13:25:20;;;;;;;12.10;5.30;;;;;;;1.42;98.94;97458.11;108022;1288;22449;-48
2024/01/14 13:27:45;;;;;;;11.80;5.60;;;;;;;1.42;98.73;97454.82;108037;1292;22996;-47
2024/01/14 13:30:11;;;;;;;14.30;6.60;;;;;;;1.37;98.70;97447.79;108032;1306;22296;-51
2024/01/14 13:32:38;;;;;;;16.80;7.80;;;;;;;1.39;98.70;97446.30;108047;1288;22242;-48
2024/01/14 13:35:05;;;;;;;16.90;6.00;;;;;;;1.44;98.55;97442.45;108027;1288;23018;-48
2024/01/14 13:37:31;;;;;;;17.90;9.10;;;;;;;1.44;98.15;97450.73;108019;1306;23355;-49
2024/01/14 13:39:57;;;;;;;14.70;8.50;;;;;;;1.47;98.05;97446.63;108021;1307;22412;-47
2024/01/14 13:42:22;;;;;;;11.10;6.80;;;;;;;1.53;97.78;97443.92;107997;1307;22705;-47
2024/01/14 13:44:48;;;;;;;13.00;6.60;;;;;;;1.51;97.15;97448.16;108035;1285;22321;-48
2024/01/14 13:47:16;;;;;;;12.70;6.30;;;;;;;1.45;96.77;97452.63;108043;1285;22398;-47
2024/01/14 13:49:41;;;;;;;14.40;5.30;;;;;;;1.44;96.72;97451.27;108019;1307;22318;-49
2024/01/14 13:52:06;;;;;;;8.90;4.80;;;;;;;1.46;96.87;97454.77;108012;1288;22206;-49
2024/01/14 13:54:31;;;;;;;12.70;6.60;;;;;;;1.43;96.66;97459.23;108020;1288;23280;-49
2024/01/14 13:57:00;;;;;;;15.30;7.70;;;;;;;1.47;96.47;97455.10;107999;1307;22133;-48
2024/01/14 13:59:25;;;;;;;9.50;4.90;;;;;;;1.52;96.43;97459.53;108018;1306;22324;-45
2024/01/14 14:01:52;;;;;;;11.00;5.10;;;;;;;1.56;96.41;97462.96;108013;1307;23133;-45
2024/01/14 14:04:17;;;;;;;10.90;4.70;;;;;;;1.55;95.99;97459.55;108033;1307;22868;-48
2024/01/14 14:06:43;;;;;;;11.70;5.60;;;;;;;1.58;95.88;97456.15;108026;1306;23295;-48
2024/01/14 14:09:08;;;;;;;10.60;5.30;;;;;;;1.64;96.04;97457.55;108019;1295;22399;-47
2024/01/14 14:11:33;;;;;;;13.90;6.30;;;;;;;1.68;95.94;97457.74;108013;1294;22234;-47
2024/01/14 14:13:59;;;;;;;12.00;5.30;;;;;;;1.67;95.56;97456.21;108010;1289;23099;-47